createdAt,value
2022-09-17T00:02:41.345Z,971.46
2022-09-17T00:08:19.472Z,971.63
2022-09-17T00:13:51.464Z,971.32
2022-09-17T00:19:22.861Z,971.26
2022-09-17T00:24:54.485Z,971.15
2022-09-17T00:30:26.237Z,971.48
2022-09-17T00:35:58.080Z,971.24
2022-09-17T00:41:29.704Z,971.68
2022-09-17T00:47:01.438Z,971.63
2022-09-17T00:52:33.283Z,971.76
2022-09-17T00:58:04.958Z,971.47
2022-09-17T01:03:36.595Z,971.36
2022-09-17T01:09:12.769Z,971.43
2022-09-17T01:14:44.418Z,971.52
2022-09-17T01:20:16.136Z,971.31
2022-09-17T01:25:47.881Z,971.75
2022-09-17T01:31:19.840Z,971.39
2022-09-17T01:36:51.288Z,971.61
2022-09-17T01:42:23.117Z,971.69
2022-09-17T01:47:54.793Z,971.79
2022-09-17T01:53:26.500Z,971.59
2022-09-17T01:58:58.144Z,971.97
2022-09-17T02:04:29.972Z,971.99
2022-09-17T02:10:08.049Z,971.9
2022-09-17T02:15:39.968Z,971.95
2022-09-17T02:21:11.480Z,971.9
2022-09-17T02:26:43.187Z,972.26
2022-09-17T02:32:14.945Z,972.24
2022-09-17T02:37:46.655Z,971.9
2022-09-17T02:43:18.411Z,971.84
2022-09-17T02:48:50.062Z,971.79
2022-09-17T02:54:21.768Z,971.6
2022-09-17T02:59:53.561Z,971.75
2022-09-17T03:05:25.305Z,971.76
2022-09-17T03:11:02.234Z,972.0
2022-09-17T03:16:34.198Z,971.76
2022-09-17T03:22:05.774Z,971.8
2022-09-17T03:27:37.548Z,971.42
2022-09-17T03:33:09.180Z,971.83
2022-09-17T03:38:40.838Z,971.83
2022-09-17T03:44:12.528Z,971.82
2022-09-17T03:49:44.381Z,972.14
2022-09-17T03:55:15.984Z,971.78
2022-09-17T04:00:48.490Z,971.87
2022-09-17T04:06:19.549Z,972.02
2022-09-17T04:11:55.637Z,971.88
2022-09-17T04:17:27.369Z,971.87
2022-09-17T04:22:59.101Z,971.85
2022-09-17T04:28:30.735Z,971.8
2022-09-17T04:34:02.488Z,971.96
2022-09-17T04:39:34.404Z,972.11
2022-09-17T04:45:06.015Z,972.1
2022-09-17T04:50:37.675Z,972.13
2022-09-17T04:56:09.417Z,972.75
2022-09-17T05:01:41.264Z,972.56
2022-09-17T05:07:14.541Z,972.43
2022-09-17T05:12:48.989Z,972.19
2022-09-17T05:18:20.845Z,972.48
2022-09-17T05:23:52.405Z,972.01
2022-09-17T05:29:24.153Z,972.16
2022-09-17T05:34:55.809Z,972.58
2022-09-17T05:40:28.073Z,972.39
2022-09-17T05:45:59.253Z,972.17
2022-09-17T05:51:30.981Z,972.77
2022-09-17T05:57:02.924Z,972.7
2022-09-17T06:02:34.524Z,973.11
2022-09-17T06:08:06.171Z,972.94
2022-09-17T06:13:42.442Z,973.21
2022-09-17T06:19:14.003Z,973.17
2022-09-17T06:24:45.726Z,972.9
2022-09-17T06:30:17.450Z,972.92
2022-09-17T06:35:49.197Z,973.32
2022-09-17T06:41:20.870Z,973.27
2022-09-17T06:46:52.765Z,973.57
2022-09-17T06:52:24.363Z,973.54
2022-09-17T06:57:56.137Z,973.61
2022-09-17T07:03:27.790Z,973.18
2022-09-17T07:08:59.489Z,973.57
2022-09-17T07:14:35.664Z,973.36
2022-09-17T07:20:07.433Z,973.81
2022-09-17T07:25:39.237Z,973.63
2022-09-17T07:31:17.023Z,973.28
2022-09-17T07:36:42.547Z,973.54
2022-09-17T07:42:14.283Z,974.23
2022-09-17T07:47:46.035Z,974.49
2022-09-17T07:53:17.685Z,974.72
2022-09-17T07:58:49.501Z,974.81
2022-09-17T08:04:21.230Z,975.11
2022-09-17T08:09:52.905Z,975.14
2022-09-17T08:15:28.943Z,974.94
2022-09-17T08:21:00.861Z,975.46
2022-09-17T08:26:33.387Z,975.8
2022-09-17T08:32:05.198Z,975.6
2022-09-17T08:37:36.773Z,975.82
2022-09-17T08:43:08.566Z,975.81
2022-09-17T08:48:40.223Z,976.48
2022-09-17T08:54:12.175Z,976.72
2022-09-17T08:59:43.786Z,976.2
2022-09-17T09:05:15.477Z,977.05
2022-09-17T09:10:47.171Z,976.84
2022-09-17T09:16:23.702Z,976.83
2022-09-17T09:21:55.301Z,976.75
2022-09-17T09:27:26.728Z,976.66
2022-09-17T09:32:58.469Z,976.51
2022-09-17T09:38:30.129Z,977.13
2022-09-17T09:44:06.005Z,976.61
2022-09-17T09:49:33.593Z,976.92
2022-09-17T09:55:05.492Z,977.28
2022-09-17T10:00:37.054Z,976.37
2022-09-17T10:06:12.026Z,976.66
2022-09-17T10:11:40.440Z,976.78
2022-09-17T10:17:17.049Z,977.22
2022-09-17T10:22:48.348Z,977.54
2022-09-17T10:28:20.163Z,976.98
2022-09-17T10:33:51.804Z,977.56
2022-09-17T10:39:23.519Z,978.09
2022-09-17T10:44:55.291Z,978.2
2022-09-17T10:50:26.933Z,977.56
2022-09-17T10:55:58.773Z,977.47
2022-09-17T11:01:30.549Z,977.49
2022-09-17T11:07:02.178Z,977.24
2022-09-17T11:12:33.890Z,977.26
2022-09-17T11:18:10.053Z,976.86
2022-09-17T11:23:41.731Z,976.9
2022-09-17T11:29:13.415Z,977.05
2022-09-17T11:34:45.135Z,977.47
2022-09-17T11:40:17.245Z,977.58
2022-09-17T11:45:48.718Z,976.61
2022-09-17T11:51:20.380Z,976.25
2022-09-17T11:56:52.105Z,976.31
2022-09-17T12:02:24.024Z,975.78
2022-09-17T12:07:55.625Z,975.13
2022-09-17T12:13:27.257Z,974.8
2022-09-17T12:19:03.361Z,974.51
2022-09-17T12:24:35.053Z,974.86
2022-09-17T12:30:06.778Z,975.14
2022-09-17T12:36:06.179Z,974.63
2022-09-17T12:41:10.218Z,974.06
2022-09-17T12:46:42.191Z,974.1
2022-09-17T12:52:13.717Z,974.5
2022-09-17T12:57:45.389Z,973.9
2022-09-17T13:03:17.101Z,973.74
2022-09-17T13:08:48.770Z,973.79
2022-09-17T13:14:20.553Z,973.89
2022-09-17T13:19:56.705Z,974.87
2022-09-17T13:25:28.392Z,974.6
2022-09-17T13:31:00.185Z,974.48
2022-09-17T13:36:32.120Z,974.88
2022-09-17T13:42:03.632Z,975.12
2022-09-17T13:47:35.278Z,975.16
2022-09-17T13:53:07.065Z,975.76
2022-09-17T13:58:38.867Z,975.52
2022-09-17T14:04:10.493Z,975.22
2022-09-17T14:09:42.254Z,975.55
2022-09-17T14:15:14.017Z,976.03
2022-09-17T14:20:52.074Z,975.86
2022-09-17T14:26:23.749Z,976.5
2022-09-17T14:31:55.509Z,976.45
2022-09-17T14:37:27.285Z,976.24
2022-09-17T14:42:58.976Z,976.12
2022-09-17T14:48:30.741Z,975.36
2022-09-17T14:54:02.414Z,975.64
2022-09-17T14:59:34.185Z,976.01
2022-09-17T15:05:05.909Z,976.19
2022-09-17T15:10:37.497Z,974.92
2022-09-17T15:16:09.649Z,974.76
2022-09-17T15:21:45.529Z,974.64
2022-09-17T15:27:17.161Z,974.24
2022-09-17T15:32:48.853Z,974.2
2022-09-17T15:38:24.545Z,974.54
2022-09-17T15:44:08.145Z,974.96
2022-09-17T15:49:24.077Z,975.04
2022-09-17T15:54:55.813Z,975.16
2022-09-17T16:00:27.533Z,974.64
2022-09-17T16:06:05.213Z,974.5
2022-09-17T16:11:30.894Z,974.81
2022-09-17T16:17:02.657Z,974.94
2022-09-17T16:22:40.781Z,975.01
2022-09-17T16:28:12.441Z,974.54
2022-09-17T16:33:44.158Z,974.37
2022-09-17T16:39:15.987Z,974.88
2022-09-17T16:44:47.717Z,974.4
2022-09-17T16:50:19.412Z,974.13
2022-09-17T16:55:51.170Z,974.39
2022-09-17T17:01:22.973Z,973.97
2022-09-17T17:06:54.625Z,973.33
2022-09-17T17:12:26.393Z,973.04
2022-09-17T17:17:58.110Z,973.52
2022-09-17T17:23:34.229Z,974.02
2022-09-17T17:29:05.965Z,973.33
2022-09-17T17:34:37.791Z,972.96
2022-09-17T17:40:09.834Z,973.43
2022-09-17T17:45:41.132Z,974.2
2022-09-17T17:51:12.924Z,973.53
2022-09-17T17:56:44.564Z,973.46
2022-09-17T18:02:16.943Z,974.18
2022-09-17T18:07:48.137Z,973.95
2022-09-17T18:13:19.809Z,974.2
2022-09-17T18:18:51.531Z,974.14
2022-09-17T18:24:31.629Z,973.78
2022-09-17T18:30:03.254Z,974.41
2022-09-17T18:35:35.169Z,974.66
2022-09-17T18:41:06.824Z,974.5
2022-09-17T18:46:38.664Z,975.04
2022-09-17T18:52:10.182Z,974.09
2022-09-17T18:57:41.957Z,974.4
2022-09-17T19:03:13.690Z,974.7
2022-09-17T19:08:45.461Z,973.9
2022-09-17T19:14:17.193Z,973.7
2022-09-17T19:19:48.877Z,974.05
2022-09-17T19:25:25.061Z,973.57
2022-09-17T19:30:56.892Z,973.93
2022-09-17T19:36:28.463Z,974.07
2022-09-17T19:42:00.201Z,974.51
2022-09-17T19:47:31.870Z,974.17
2022-09-17T19:53:03.595Z,975.09
2022-09-17T19:58:35.310Z,975.23
2022-09-17T20:04:07.025Z,975.54
2022-09-17T20:09:38.751Z,975.49
2022-09-17T20:15:10.446Z,975.4
2022-09-17T20:20:42.170Z,975.44
2022-09-17T20:26:18.365Z,975.67
2022-09-17T20:31:50.121Z,975.16
2022-09-17T20:39:22.142Z,975.41
2022-09-17T20:42:53.523Z,974.94
2022-09-17T20:48:25.445Z,975.22
2022-09-17T20:53:58.342Z,975.02
2022-09-17T20:59:29.559Z,975.34
2022-09-17T21:05:01.404Z,975.88
2022-09-17T21:10:33.177Z,975.73
2022-09-17T21:16:05.455Z,974.69
2022-09-17T21:21:36.708Z,975.36
2022-09-17T21:27:14.953Z,976.04
2022-09-17T21:32:46.537Z,975.26
2022-09-17T21:38:18.333Z,976.0
2022-09-17T21:43:50.008Z,975.56
2022-09-17T21:49:21.735Z,975.98
2022-09-17T21:54:53.478Z,975.74
2022-09-17T22:00:25.578Z,976.01
2022-09-17T22:05:57.109Z,975.85
2022-09-17T22:11:28.637Z,976.0
2022-09-17T22:17:00.588Z,975.84
2022-09-17T22:22:32.401Z,975.64
2022-09-17T22:28:22.225Z,976.06
2022-09-17T22:33:40.004Z,976.18
2022-09-17T22:39:11.717Z,976.5
2022-09-17T22:44:43.501Z,976.26
2022-09-17T22:50:15.120Z,976.09
2022-09-17T22:55:47.034Z,976.13
2022-09-17T23:01:18.718Z,976.41
2022-09-17T23:06:50.247Z,976.79
2022-09-17T23:12:22.074Z,976.44
2022-09-17T23:17:53.753Z,976.19
2022-09-17T23:23:25.489Z,976.21
2022-09-17T23:29:06.305Z,976.51
2022-09-17T23:34:35.338Z,976.56
2022-09-17T23:40:07.250Z,976.53
2022-09-17T23:45:38.945Z,976.57
2022-09-17T23:51:10.497Z,976.95
2022-09-17T23:56:42.324Z,976.18
